KSRB

Upper Cumberland Regional Airport

Sparta, Tennessee, USA
METAR KSRB 151915Z AUTO 31006KT 10SM FEW075 14/09 A2985 RMK A01
Observed Flight Rules
Feb-15 @ 19:15 UTC (32 minutes ago) Visual Flight Rules
Wind Visibility Clouds
310° at 6 knots 10 miles
  • Few at 7,500' AGL
Temperatures Readings
Current 14°C / 57°F
Dewpoint 9°C / 48°F
Humidity 72%
Altimeter 29.85" Hg
Pressure 1010.82 hPa
Elevation 313
METAR KSRB 151915Z AUTO 31006KT 10SM FEW075 14/09 A2985 RMK A01
Observed Flight Rules
Feb-15 @ 19:15 UTC
(32 minutes ago)
VFR
Wind Visibility
310° at 6 knots 10 miles
Clouds
  • Few at 7,500' AGL
Temperature Dewpoint
14°C / 57°F 9°C / 48°F
Humidity Altimeter Pressure
72% 29.85" Hg 1010.82 hPa